WAWW/KDI METAR and TAF weather

Enter ICAO airport designator
Station Type Date Time Source
WAWW METAR UTC NOAA

Error!


Station Type Date Time Source
WAWW Decoded METAR UTC NOAA

Error!

Station Type Date Time Source
WAWW TAF 2018/10/05 18:00 UTC NOAA

TAF WAWW 051700Z 0518/0606 00000KT 8000 FEW017
BECMG 0601/0603 09010KT 9999


Example: see airport list